sensor_id;sensor_type;location;lat;lon;timestamp;pressure;altitude;pressure_sealevel;temperature;humidity
50790;BME280;37287;47.554;7.844;2023-12-04T00:02:02;97994.91;;;-6.64;100.00
50790;BME280;37287;47.554;7.844;2023-12-04T00:04:29;97995.69;;;-6.63;100.00
50790;BME280;37287;47.554;7.844;2023-12-04T00:06:56;97983.59;;;-6.64;100.00
50790;BME280;37287;47.554;7.844;2023-12-04T00:09:23;97955.69;;;-6.65;100.00
50790;BME280;37287;47.554;7.844;2023-12-04T00:11:51;97963.84;;;-6.67;100.00
50790;BME280;37287;47.554;7.844;2023-12-04T00:14:18;97965.44;;;-6.66;100.00
50790;BME280;37287;47.554;7.844;2023-12-04T00:16:46;97958.31;;;-6.65;100.00
50790;BME280;37287;47.554;7.844;2023-12-04T00:19:12;97970.16;;;-6.63;100.00
50790;BME280;37287;47.554;7.844;2023-12-04T00:21:39;97949.38;;;-6.64;100.00
50790;BME280;37287;47.554;7.844;2023-12-04T00:24:06;97941.47;;;-6.64;100.00
50790;BME280;37287;47.554;7.844;2023-12-04T00:26:33;97938.56;;;-6.63;100.00
50790;BME280;37287;47.554;7.844;2023-12-04T00:29:00;97944.63;;;-6.62;100.00
50790;BME280;37287;47.554;7.844;2023-12-04T00:31:28;97941.97;;;-6.62;100.00
50790;BME280;37287;47.554;7.844;2023-12-04T00:33:54;97954.34;;;-6.58;100.00
50790;BME280;37287;47.554;7.844;2023-12-04T00:36:21;97947.78;;;-6.60;100.00
50790;BME280;37287;47.554;7.844;2023-12-04T00:38:48;97932.22;;;-6.62;100.00
50790;BME280;37287;47.554;7.844;2023-12-04T00:41:15;97937.75;;;-6.63;100.00
50790;BME280;37287;47.554;7.844;2023-12-04T00:43:41;97948.56;;;-6.60;100.00
50790;BME280;37287;47.554;7.844;2023-12-04T00:46:08;97945.66;;;-6.63;100.00
50790;BME280;37287;47.554;7.844;2023-12-04T00:48:35;97950.94;;;-6.63;100.00
50790;BME280;37287;47.554;7.844;2023-12-04T00:51:02;97930.66;;;-6.63;100.00
50790;BME280;37287;47.554;7.844;2023-12-04T00:53:29;97927.50;;;-6.60;100.00
50790;BME280;37287;47.554;7.844;2023-12-04T00:55:57;97946.72;;;-6.59;100.00
50790;BME280;37287;47.554;7.844;2023-12-04T00:58:23;97935.69;;;-6.61;100.00
50790;BME280;37287;47.554;7.844;2023-12-04T01:00:50;97934.38;;;-6.59;100.00
50790;BME280;37287;47.554;7.844;2023-12-04T01:03:18;97935.16;;;-6.58;100.00
50790;BME280;37287;47.554;7.844;2023-12-04T01:05:45;97920.94;;;-6.57;100.00
50790;BME280;37287;47.554;7.844;2023-12-04T01:08:12;97916.72;;;-6.58;100.00
50790;BME280;37287;47.554;7.844;2023-12-04T01:10:39;97924.88;;;-6.60;100.00
50790;BME280;37287;47.554;7.844;2023-12-04T01:13:06;97909.59;;;-6.63;100.00
50790;BME280;37287;47.554;7.844;2023-12-04T01:15:33;97912.50;;;-6.59;100.00
50790;BME280;37287;47.554;7.844;2023-12-04T01:17:59;97910.94;;;-6.60;100.00
50790;BME280;37287;47.554;7.844;2023-12-04T01:20:27;97902.47;;;-6.62;100.00
50790;BME280;37287;47.554;7.844;2023-12-04T01:22:54;97920.91;;;-6.62;100.00
50790;BME280;37287;47.554;7.844;2023-12-04T01:25:21;97920.13;;;-6.63;100.00
50790;BME280;37287;47.554;7.844;2023-12-04T01:27:47;97895.13;;;-6.60;100.00
50790;BME280;37287;47.554;7.844;2023-12-04T01:30:14;97902.75;;;-6.59;100.00
50790;BME280;37287;47.554;7.844;2023-12-04T01:32:41;97907.75;;;-6.57;100.00
50790;BME280;37287;47.554;7.844;2023-12-04T01:35:08;97882.22;;;-6.57;100.00
50790;BME280;37287;47.554;7.844;2023-12-04T01:37:36;97899.88;;;-6.57;100.00
50790;BME280;37287;47.554;7.844;2023-12-04T01:40:03;97894.84;;;-6.53;100.00
50790;BME280;37287;47.554;7.844;2023-12-04T01:42:33;97888.25;;;-6.56;100.00
50790;BME280;37287;47.554;7.844;2023-12-04T01:45:00;97885.38;;;-6.54;100.00
50790;BME280;37287;47.554;7.844;2023-12-04T01:47:27;97884.31;;;-6.53;100.00
50790;BME280;37287;47.554;7.844;2023-12-04T01:49:54;97887.75;;;-6.53;100.00
50790;BME280;37287;47.554;7.844;2023-12-04T01:52:21;97875.38;;;-6.52;100.00
50790;BME280;37287;47.554;7.844;2023-12-04T01:54:48;97870.38;;;-6.49;100.00
50790;BME280;37287;47.554;7.844;2023-12-04T01:57:15;97868.25;;;-6.47;100.00
50790;BME280;37287;47.554;7.844;2023-12-04T01:59:42;97866.66;;;-6.48;100.00
50790;BME280;37287;47.554;7.844;2023-12-04T02:02:09;97884.31;;;-6.48;100.00
50790;BME280;37287;47.554;7.844;2023-12-04T02:04:36;97875.66;;;-6.49;100.00
50790;BME280;37287;47.554;7.844;2023-12-04T02:07:03;97879.31;;;-6.50;100.00
50790;BME280;37287;47.554;7.844;2023-12-04T02:09:30;97867.97;;;-6.50;100.00
50790;BME280;37287;47.554;7.844;2023-12-04T02:11:58;97870.38;;;-6.49;100.00
50790;BME280;37287;47.554;7.844;2023-12-04T02:14:26;97866.66;;;-6.48;100.00
50790;BME280;37287;47.554;7.844;2023-12-04T02:16:54;97875.88;;;-6.45;100.00
50790;BME280;37287;47.554;7.844;2023-12-04T02:19:21;97872.22;;;-6.44;100.00
50790;BME280;37287;47.554;7.844;2023-12-04T02:21:49;97871.66;;;-6.46;100.00
50790;BME280;37287;47.554;7.844;2023-12-04T02:24:15;97875.88;;;-6.45;100.00
50790;BME280;37287;47.554;7.844;2023-12-04T02:26:52;97882.19;;;-6.46;100.00
50790;BME280;37287;47.554;7.844;2023-12-04T02:29:29;97888.78;;;-6.44;100.00
50790;BME280;37287;47.554;7.844;2023-12-04T02:31:58;97894.06;;;-6.44;100.00
50790;BME280;37287;47.554;7.844;2023-12-04T02:34:28;97877.47;;;-6.44;100.00
50790;BME280;37287;47.554;7.844;2023-12-04T02:36:57;97858.00;;;-6.43;100.00
50790;BME280;37287;47.554;7.844;2023-12-04T02:39:26;97861.91;;;-6.41;100.00
50790;BME280;37287;47.554;7.844;2023-12-04T02:41:53;97863.50;;;-6.40;100.00
50790;BME280;37287;47.554;7.844;2023-12-04T02:44:20;97873.78;;;-6.38;100.00
50790;BME280;37287;47.554;7.844;2023-12-04T02:46:47;97867.47;;;-6.37;100.00
50790;BME280;37287;47.554;7.844;2023-12-04T02:49:14;97865.06;;;-6.33;100.00
50790;BME280;37287;47.554;7.844;2023-12-04T02:51:41;97859.56;;;-6.32;100.00
50790;BME280;37287;47.554;7.844;2023-12-04T02:54:08;97849.25;;;-6.28;100.00
50790;BME280;37287;47.554;7.844;2023-12-04T02:56:35;97840.81;;;-6.25;100.00
50790;BME280;37287;47.554;7.844;2023-12-04T02:59:02;97851.38;;;-6.25;100.00
50790;BME280;37287;47.554;7.844;2023-12-04T03:01:29;97830.81;;;-6.23;100.00
50790;BME280;37287;47.554;7.844;2023-12-04T03:03:56;97827.66;;;-6.20;100.00
50790;BME280;37287;47.554;7.844;2023-12-04T03:06:23;97831.88;;;-6.19;100.00
50790;BME280;37287;47.554;7.844;2023-12-04T03:08:50;97819.47;;;-6.18;100.00
50790;BME280;37287;47.554;7.844;2023-12-04T03:11:17;97821.84;;;-6.17;100.00
50790;BME280;37287;47.554;7.844;2023-12-04T03:13:44;97822.38;;;-6.15;100.00
50790;BME280;37287;47.554;7.844;2023-12-04T03:16:17;97808.94;;;-6.13;100.00
50790;BME280;37287;47.554;7.844;2023-12-04T03:18:44;97819.19;;;-6.12;100.00
50790;BME280;37287;47.554;7.844;2023-12-04T03:21:12;97812.34;;;-6.08;100.00
50790;BME280;37287;47.554;7.844;2023-12-04T03:23:38;97825.53;;;-6.08;100.00
50790;BME280;37287;47.554;7.844;2023-12-04T03:26:05;97823.94;;;-6.03;100.00
50790;BME280;37287;47.554;7.844;2023-12-04T03:28:32;97810.47;;;-6.02;100.00
50790;BME280;37287;47.554;7.844;2023-12-04T03:30:59;97801.25;;;-5.99;100.00
50790;BME280;37287;47.554;7.844;2023-12-04T03:33:26;97803.88;;;-5.99;100.00
50790;BME280;37287;47.554;7.844;2023-12-04T03:35:53;97805.44;;;-5.98;100.00
50790;BME280;37287;47.554;7.844;2023-12-04T03:38:19;97784.34;;;-5.98;100.00
50790;BME280;37287;47.554;7.844;2023-12-04T03:40:46;97784.34;;;-5.98;100.00
50790;BME280;37287;47.554;7.844;2023-12-04T03:43:13;97770.88;;;-5.97;100.00
50790;BME280;37287;47.554;7.844;2023-12-04T03:45:40;97770.59;;;-5.95;100.00
50790;BME280;37287;47.554;7.844;2023-12-04T03:48:07;97772.19;;;-5.94;100.00
50790;BME280;37287;47.554;7.844;2023-12-04T03:50:34;97770.88;;;-5.92;100.00
50790;BME280;37287;47.554;7.844;2023-12-04T03:53:00;97766.38;;;-5.91;100.00
50790;BME280;37287;47.554;7.844;2023-12-04T03:55:27;97767.69;;;-5.89;100.00
50790;BME280;37287;47.554;7.844;2023-12-04T03:57:55;97757.13;;;-5.89;100.00
50790;BME280;37287;47.554;7.844;2023-12-04T04:00:22;97766.34;;;-5.86;100.00
50790;BME280;37287;47.554;7.844;2023-12-04T04:02:49;97770.03;;;-5.87;100.00
50790;BME280;37287;47.554;7.844;2023-12-04T04:05:16;97762.94;;;-5.87;100.00
50790;BME280;37287;47.554;7.844;2023-12-04T04:07:42;97775.31;;;-5.87;100.00
50790;BME280;37287;47.554;7.844;2023-12-04T04:10:09;97761.88;;;-5.85;100.00
50790;BME280;37287;47.554;7.844;2023-12-04T04:12:36;97765.59;;;-5.87;100.00
50790;BME280;37287;47.554;7.844;2023-12-04T04:15:03;97756.88;;;-5.87;100.00
50790;BME280;37287;47.554;7.844;2023-12-04T04:17:30;97755.81;;;-5.86;100.00
50790;BME280;37287;47.554;7.844;2023-12-04T04:19:57;97748.41;;;-5.84;100.00
50790;BME280;37287;47.554;7.844;2023-12-04T04:22:24;97750.81;;;-5.82;100.00
50790;BME280;37287;47.554;7.844;2023-12-04T04:24:50;97745.25;;;-5.81;100.00
50790;BME280;37287;47.554;7.844;2023-12-04T04:27:18;97749.44;;;-5.80;100.00
50790;BME280;37287;47.554;7.844;2023-12-04T04:29:45;97739.72;;;-5.79;100.00
50790;BME280;37287;47.554;7.844;2023-12-04T04:32:12;97725.72;;;-5.80;100.00
50790;BME280;37287;47.554;7.844;2023-12-04T04:34:40;97726.53;;;-5.79;100.00
50790;BME280;37287;47.554;7.844;2023-12-04T04:37:07;97723.59;;;-5.78;100.00
50790;BME280;37287;47.554;7.844;2023-12-04T04:39:34;97724.09;;;-5.76;100.00
50790;BME280;37287;47.554;7.844;2023-12-04T04:42:01;97733.59;;;-5.75;100.00
50790;BME280;37287;47.554;7.844;2023-12-04T04:44:28;97722.00;;;-5.74;100.00
50790;BME280;37287;47.554;7.844;2023-12-04T04:46:55;97729.09;;;-5.74;100.00
50790;BME280;37287;47.554;7.844;2023-12-04T04:49:21;97725.16;;;-5.72;100.00
50790;BME280;37287;47.554;7.844;2023-12-04T04:51:48;97725.16;;;-5.72;100.00
50790;BME280;37287;47.554;7.844;2023-12-04T04:54:15;97734.91;;;-5.72;100.00
50790;BME280;37287;47.554;7.844;2023-12-04T04:56:42;97735.69;;;-5.72;100.00
50790;BME280;37287;47.554;7.844;2023-12-04T04:59:09;97728.31;;;-5.70;100.00
50790;BME280;37287;47.554;7.844;2023-12-04T05:01:35;97714.84;;;-5.68;100.00
50790;BME280;37287;47.554;7.844;2023-12-04T05:04:03;97700.84;;;-5.68;100.00
50790;BME280;37287;47.554;7.844;2023-12-04T05:06:30;97711.41;;;-5.68;100.00
50790;BME280;37287;47.554;7.844;2023-12-04T05:08:57;97704.81;;;-5.66;100.00
50790;BME280;37287;47.554;7.844;2023-12-04T05:11:24;97701.66;;;-5.68;100.00
50790;BME280;37287;47.554;7.844;2023-12-04T05:13:51;97693.75;;;-5.68;100.00
50790;BME280;37287;47.554;7.844;2023-12-04T05:16:17;97692.94;;;-5.68;100.00
50790;BME280;37287;47.554;7.844;2023-12-04T05:18:44;97697.72;;;-5.71;100.00
50790;BME280;37287;47.554;7.844;2023-12-04T05:21:11;97684.53;;;-5.71;100.00
50790;BME280;37287;47.554;7.844;2023-12-04T05:23:38;97690.31;;;-5.68;100.00
50790;BME280;37287;47.554;7.844;2023-12-04T05:26:06;97710.91;;;-5.71;100.00
50790;BME280;37287;47.554;7.844;2023-12-04T05:28:34;97685.88;;;-5.73;100.00
50790;BME280;37287;47.554;7.844;2023-12-04T05:31:01;97677.69;;;-5.72;100.00
50790;BME280;37287;47.554;7.844;2023-12-04T05:33:28;97647.91;;;-5.72;100.00
50790;BME280;37287;47.554;7.844;2023-12-04T05:35:55;97665.53;;;-5.73;100.00
50790;BME280;37287;47.554;7.844;2023-12-04T05:38:22;97683.22;;;-5.73;100.00
50790;BME280;37287;47.554;7.844;2023-12-04T05:40:48;97653.44;;;-5.74;100.00
50790;BME280;37287;47.554;7.844;2023-12-04T05:43:15;97660.56;;;-5.74;100.00
50790;BME280;37287;47.554;7.844;2023-12-04T05:45:42;97657.88;;;-5.69;100.00
50790;BME280;37287;47.554;7.844;2023-12-04T05:48:09;97643.41;;;-5.72;100.00
50790;BME280;37287;47.554;7.844;2023-12-04T05:50:36;97645.25;;;-5.72;100.00
50790;BME280;37287;47.554;7.844;2023-12-04T05:53:03;97648.41;;;-5.70;100.00
50790;BME280;37287;47.554;7.844;2023-12-04T05:55:30;97651.84;;;-5.70;100.00
50790;BME280;37287;47.554;7.844;2023-12-04T05:57:56;97636.50;;;-5.67;100.00
50790;BME280;37287;47.554;7.844;2023-12-04T06:00:23;97653.13;;;-5.67;100.00
50790;BME280;37287;47.554;7.844;2023-12-04T06:02:54;97671.56;;;-5.67;100.00
50790;BME280;37287;47.554;7.844;2023-12-04T06:05:21;97655.25;;;-5.69;100.00
50790;BME280;37287;47.554;7.844;2023-12-04T06:07:50;97635.75;;;-5.68;100.00
50790;BME280;37287;47.554;7.844;2023-12-04T06:10:16;97635.50;;;-5.72;100.00
50790;BME280;37287;47.554;7.844;2023-12-04T06:12:43;97657.38;;;-5.71;100.00
50790;BME280;37287;47.554;7.844;2023-12-04T06:15:10;97639.72;;;-5.71;100.00
50790;BME280;37287;47.554;7.844;2023-12-04T06:22:56;97629.16;;;-5.71;100.00
50790;BME280;37287;47.554;7.844;2023-12-04T06:25:23;97636.50;;;-5.67;100.00
50790;BME280;37287;47.554;7.844;2023-12-04T06:27:50;97621.75;;;-5.68;100.00
50790;BME280;37287;47.554;7.844;2023-12-04T06:30:18;97623.31;;;-5.67;100.00
50790;BME280;37287;47.554;7.844;2023-12-04T06:32:45;97667.38;;;-5.68;100.00
50790;BME280;37287;47.554;7.844;2023-12-04T06:35:12;97675.53;;;-5.64;100.00
50790;BME280;37287;47.554;7.844;2023-12-04T06:37:43;97663.13;;;-5.64;100.00
50790;BME280;37287;47.554;7.844;2023-12-04T06:40:09;97639.91;;;-5.62;100.00
50790;BME280;37287;47.554;7.844;2023-12-04T06:42:38;97621.72;;;-5.63;100.00
50790;BME280;37287;47.554;7.844;2023-12-04T06:45:06;97678.69;;;-5.62;100.00
50790;BME280;37287;47.554;7.844;2023-12-04T06:47:34;97680.25;;;-5.61;100.00
50790;BME280;37287;47.554;7.844;2023-12-04T06:50:00;97674.97;;;-5.61;100.00
50790;BME280;37287;47.554;7.844;2023-12-04T06:52:27;97655.16;;;-5.59;100.00
50790;BME280;37287;47.554;7.844;2023-12-04T06:54:54;97633.50;;;-5.56;100.00
50790;BME280;37287;47.554;7.844;2023-12-04T06:57:21;97626.41;;;-5.55;100.00
50790;BME280;37287;47.554;7.844;2023-12-04T06:59:48;97598.44;;;-5.56;100.00
50790;BME280;37287;47.554;7.844;2023-12-04T07:02:14;97597.41;;;-5.55;100.00
50790;BME280;37287;47.554;7.844;2023-12-04T07:04:41;97600.03;;;-5.55;100.00
50790;BME280;37287;47.554;7.844;2023-12-04T07:07:08;97610.31;;;-5.54;100.00
50790;BME280;37287;47.554;7.844;2023-12-04T07:09:34;97636.41;;;-5.52;100.00
50790;BME280;37287;47.554;7.844;2023-12-04T07:12:02;97640.63;;;-5.51;100.00
50790;BME280;37287;47.554;7.844;2023-12-04T07:14:31;97597.09;;;-5.48;100.00
50790;BME280;37287;47.554;7.844;2023-12-04T07:16:58;97578.06;;;-5.45;100.00
50790;BME280;37287;47.554;7.844;2023-12-04T07:19:25;97568.81;;;-5.43;100.00
50790;BME280;37287;47.554;7.844;2023-12-04T07:21:53;97570.63;;;-5.43;100.00
50790;BME280;37287;47.554;7.844;2023-12-04T07:24:20;97546.59;;;-5.42;100.00
50790;BME280;37287;47.554;7.844;2023-12-04T07:26:47;97528.66;;;-5.40;100.00
50790;BME280;37287;47.554;7.844;2023-12-04T07:29:13;97503.84;;;-5.39;100.00
50790;BME280;37287;47.554;7.844;2023-12-04T07:31:41;97473.75;;;-5.38;100.00
50790;BME280;37287;47.554;7.844;2023-12-04T07:34:08;97474.00;;;-5.34;100.00
50790;BME280;37287;47.554;7.844;2023-12-04T07:36:35;97480.78;;;-5.28;100.00
50790;BME280;37287;47.554;7.844;2023-12-04T07:39:02;97506.59;;;-5.25;100.00
50790;BME280;37287;47.554;7.844;2023-12-04T07:41:29;97519.75;;;-5.20;100.00
50790;BME280;37287;47.554;7.844;2023-12-04T07:43:56;97535.00;;;-5.16;100.00
50790;BME280;37287;47.554;7.844;2023-12-04T07:46:22;97551.84;;;-5.12;100.00
50790;BME280;37287;47.554;7.844;2023-12-04T07:48:49;97584.31;;;-5.12;100.00
50790;BME280;37287;47.554;7.844;2023-12-04T07:51:18;97581.66;;;-5.12;100.00
50790;BME280;37287;47.554;7.844;2023-12-04T07:53:45;97615.94;;;-5.07;100.00
50790;BME280;37287;47.554;7.844;2023-12-04T07:56:12;97618.59;;;-5.07;100.00
50790;BME280;37287;47.554;7.844;2023-12-04T07:58:39;97629.91;;;-5.06;100.00
50790;BME280;37287;47.554;7.844;2023-12-04T08:01:06;97608.03;;;-5.07;100.00
50790;BME280;37287;47.554;7.844;2023-12-04T08:03:34;97614.38;;;-5.08;100.00
50790;BME280;37287;47.554;7.844;2023-12-04T08:06:03;97615.94;;;-5.07;100.00
50790;BME280;37287;47.554;7.844;2023-12-04T08:08:30;97609.03;;;-5.03;100.00
50790;BME280;37287;47.554;7.844;2023-12-04T08:10:57;97596.13;;;-5.04;100.00
50790;BME280;37287;47.554;7.844;2023-12-04T08:13:24;97611.97;;;-5.04;100.00
50790;BME280;37287;47.554;7.844;2023-12-04T08:15:51;97620.38;;;-5.02;100.00
50790;BME280;37287;47.554;7.844;2023-12-04T08:18:18;97623.81;;;-5.02;100.00
50790;BME280;37287;47.554;7.844;2023-12-04T08:20:45;97599.53;;;-5.04;100.00
50790;BME280;37287;47.554;7.844;2023-12-04T08:23:13;97613.31;;;-5.07;100.00
50790;BME280;37287;47.554;7.844;2023-12-04T08:25:39;97609.66;;;-5.11;100.00
50790;BME280;37287;47.554;7.844;2023-12-04T08:28:07;97596.44;;;-5.11;100.00
50790;BME280;37287;47.554;7.844;2023-12-04T08:30:35;97601.22;;;-5.13;100.00
50790;BME280;37287;47.554;7.844;2023-12-04T08:33:02;97601.28;;;-5.18;100.00
50790;BME280;37287;47.554;7.844;2023-12-04T08:35:30;97607.69;;;-5.24;100.00
50790;BME280;37287;47.554;7.844;2023-12-04T08:37:56;97595.53;;;-5.25;100.00
50790;BME280;37287;47.554;7.844;2023-12-04T08:40:23;97600.31;;;-5.27;100.00
50790;BME280;37287;47.554;7.844;2023-12-04T08:42:50;97602.41;;;-5.24;100.00
50790;BME280;37287;47.554;7.844;2023-12-04T08:45:17;97598.13;;;-5.20;100.00
50790;BME280;37287;47.554;7.844;2023-12-04T08:47:45;97579.59;;;-5.15;100.00
50790;BME280;37287;47.554;7.844;2023-12-04T08:50:13;97596.44;;;-5.11;100.00
50790;BME280;37287;47.554;7.844;2023-12-04T08:52:39;97575.28;;;-5.06;100.00
50790;BME280;37287;47.554;7.844;2023-12-04T08:55:09;97596.34;;;-5.01;100.00
50790;BME280;37287;47.554;7.844;2023-12-04T08:57:36;97598.94;;;-4.95;100.00
50790;BME280;37287;47.554;7.844;2023-12-04T09:00:03;97600.19;;;-4.88;100.00
50790;BME280;37287;47.554;7.844;2023-12-04T09:02:30;97588.19;;;-4.80;100.00
50790;BME280;37287;47.554;7.844;2023-12-04T09:04:58;97589.69;;;-4.74;100.00
50790;BME280;37287;47.554;7.844;2023-12-04T09:07:26;97597.56;;;-4.69;100.00
50790;BME280;37287;47.554;7.844;2023-12-04T09:10:12;97607.00;;;-4.62;100.00
50790;BME280;37287;47.554;7.844;2023-12-04T09:12:56;97595.09;;;-4.60;100.00
50790;BME280;37287;47.554;7.844;2023-12-04T09:15:23;97586.38;;;-4.60;100.00
50790;BME280;37287;47.554;7.844;2023-12-04T09:17:50;97575.75;;;-4.55;100.00
50790;BME280;37287;47.554;7.844;2023-12-04T09:20:16;97563.34;;;-4.55;100.00
50790;BME280;37287;47.554;7.844;2023-12-04T09:22:43;97539.75;;;-4.51;100.00
50790;BME280;37287;47.554;7.844;2023-12-04T09:25:18;97562.47;;;-4.50;100.00
50790;BME280;37287;47.554;7.844;2023-12-04T09:27:45;97575.69;;;-4.50;100.00
50790;BME280;37287;47.554;7.844;2023-12-04T09:30:12;97581.50;;;-4.48;100.00
50790;BME280;37287;47.554;7.844;2023-12-04T09:32:40;97576.13;;;-4.43;100.00
50790;BME280;37287;47.554;7.844;2023-12-04T09:35:07;97567.06;;;-4.37;100.00
50790;BME280;37287;47.554;7.844;2023-12-04T09:37:34;97520.75;;;-4.34;100.00
50790;BME280;37287;47.554;7.844;2023-12-04T09:40:00;97517.34;;;-4.35;100.00
50790;BME280;37287;47.554;7.844;2023-12-04T09:42:28;97528.44;;;-4.33;100.00
50790;BME280;37287;47.554;7.844;2023-12-04T09:44:57;97543.47;;;-4.33;100.00
50790;BME280;37287;47.554;7.844;2023-12-04T09:47:25;97558.56;;;-4.34;100.00
50790;BME280;37287;47.554;7.844;2023-12-04T09:49:53;97581.19;;;-4.27;100.00
50790;BME280;37287;47.554;7.844;2023-12-04T09:52:22;97584.69;;;-4.13;100.00
50790;BME280;37287;47.554;7.844;2023-12-04T09:54:50;97550.69;;;-4.01;100.00
50790;BME280;37287;47.554;7.844;2023-12-04T09:57:18;97606.34;;;-3.92;100.00
50790;BME280;37287;47.554;7.844;2023-12-04T09:59:45;97654.09;;;-3.83;100.00
50790;BME280;37287;47.554;7.844;2023-12-04T10:02:12;97636.28;;;-3.77;100.00
50790;BME280;37287;47.554;7.844;2023-12-04T10:04:39;97610.00;;;-3.69;100.00
50790;BME280;37287;47.554;7.844;2023-12-04T10:07:07;97608.81;;;-3.63;100.00
50790;BME280;37287;47.554;7.844;2023-12-04T10:09:34;97593.47;;;-3.60;100.00
50790;BME280;37287;47.554;7.844;2023-12-04T10:12:01;97583.66;;;-3.60;100.00
50790;BME280;37287;47.554;7.844;2023-12-04T10:14:28;97575.50;;;-3.64;100.00
50790;BME280;37287;47.554;7.844;2023-12-04T10:16:55;97545.97;;;-3.71;100.00
50790;BME280;37287;47.554;7.844;2023-12-04T10:19:26;97548.88;;;-3.86;100.00
50790;BME280;37287;47.554;7.844;2023-12-04T10:21:58;97542.47;;;-3.99;100.00
50790;BME280;37287;47.554;7.844;2023-12-04T10:24:35;97535.47;;;-4.09;100.00
50790;BME280;37287;47.554;7.844;2023-12-04T10:27:07;97514.25;;;-4.23;100.00
50790;BME280;37287;47.554;7.844;2023-12-04T10:29:42;97523.94;;;-4.32;100.00
50790;BME280;37287;47.554;7.844;2023-12-04T10:32:09;97486.22;;;-4.38;100.00
50790;BME280;37287;47.554;7.844;2023-12-04T10:34:37;97465.13;;;-4.43;100.00
50790;BME280;37287;47.554;7.844;2023-12-04T10:37:04;97463.59;;;-4.44;100.00
50790;BME280;37287;47.554;7.844;2023-12-04T10:39:45;97430.00;;;-4.43;100.00
50790;BME280;37287;47.554;7.844;2023-12-04T10:42:27;97442.66;;;-4.40;100.00
50790;BME280;37287;47.554;7.844;2023-12-04T10:44:57;97446.88;;;-4.39;100.00
50790;BME280;37287;47.554;7.844;2023-12-04T10:47:25;97456.06;;;-4.37;100.00
50790;BME280;37287;47.554;7.844;2023-12-04T10:49:52;97466.78;;;-4.28;100.00
50790;BME280;37287;47.554;7.844;2023-12-04T10:52:19;97461.03;;;-4.16;100.00
50790;BME280;37287;47.554;7.844;2023-12-04T10:54:47;97449.31;;;-4.10;100.00
50790;BME280;37287;47.554;7.844;2023-12-04T10:57:29;97453.44;;;-4.04;100.00
50790;BME280;37287;47.554;7.844;2023-12-04T11:00:03;97458.84;;;-3.95;100.00
50790;BME280;37287;47.554;7.844;2023-12-04T11:02:34;97457.09;;;-3.86;100.00
50790;BME280;37287;47.554;7.844;2023-12-04T11:05:06;97459.34;;;-3.79;100.00
50790;BME280;37287;47.554;7.844;2023-12-04T11:07:41;97451.03;;;-3.72;100.00
50790;BME280;37287;47.554;7.844;2023-12-04T11:10:31;97436.16;;;-3.68;100.00
50790;BME280;37287;47.554;7.844;2023-12-04T11:13:08;97432.16;;;-3.66;100.00
50790;BME280;37287;47.554;7.844;2023-12-04T11:15:41;97425.50;;;-3.63;100.00
50790;BME280;37287;47.554;7.844;2023-12-04T11:18:13;97425.66;;;-3.59;100.00
50790;BME280;37287;47.554;7.844;2023-12-04T11:20:48;97416.06;;;-3.55;100.00
50790;BME280;37287;47.554;7.844;2023-12-04T11:23:17;97413.34;;;-3.50;100.00
50790;BME280;37287;47.554;7.844;2023-12-04T11:25:45;97407.91;;;-3.45;100.00
50790;BME280;37287;47.554;7.844;2023-12-04T11:28:14;97395.66;;;-3.41;100.00
50790;BME280;37287;47.554;7.844;2023-12-04T11:30:42;97392.16;;;-3.36;100.00
50790;BME280;37287;47.554;7.844;2023-12-04T11:33:10;97371.75;;;-3.36;100.00
50790;BME280;37287;47.554;7.844;2023-12-04T11:35:38;97373.03;;;-3.33;100.00
50790;BME280;37287;47.554;7.844;2023-12-04T11:38:06;97351.56;;;-3.32;100.00
50790;BME280;37287;47.554;7.844;2023-12-04T11:40:36;97341.56;;;-3.35;100.00
50790;BME280;37287;47.554;7.844;2023-12-04T11:43:21;97354.13;;;-3.40;100.00
50790;BME280;37287;47.554;7.844;2023-12-04T11:45:50;97339.63;;;-3.43;100.00
50790;BME280;37287;47.554;7.844;2023-12-04T11:48:16;97322.38;;;-3.40;100.00
50790;BME280;37287;47.554;7.844;2023-12-04T11:50:48;97332.53;;;-3.34;100.00
50790;BME280;37287;47.554;7.844;2023-12-04T11:53:15;97334.47;;;-3.25;100.00
50790;BME280;37287;47.554;7.844;2023-12-04T11:55:42;97381.34;;;-3.26;100.00
50790;BME280;37287;47.554;7.844;2023-12-04T11:58:10;97390.44;;;-3.18;100.00
50790;BME280;37287;47.554;7.844;2023-12-04T12:00:38;97383.84;;;-3.07;100.00
50790;BME280;37287;47.554;7.844;2023-12-04T12:03:08;97399.03;;;-2.99;100.00
50790;BME280;37287;47.554;7.844;2023-12-04T12:05:49;97360.41;;;-3.00;100.00
50790;BME280;37287;47.554;7.844;2023-12-04T12:08:19;97392.75;;;-3.03;100.00
50790;BME280;37287;47.554;7.844;2023-12-04T12:10:46;97377.31;;;-3.09;100.00
50790;BME280;37287;47.554;7.844;2023-12-04T12:13:14;97394.66;;;-3.17;100.00
50790;BME280;37287;47.554;7.844;2023-12-04T12:15:41;97376.13;;;-3.17;100.00
50790;BME280;37287;47.554;7.844;2023-12-04T12:18:08;97388.28;;;-3.16;100.00
50790;BME280;37287;47.554;7.844;2023-12-04T12:20:36;97372.41;;;-3.16;100.00
50790;BME280;37287;47.554;7.844;2023-12-04T12:23:04;97352.03;;;-3.30;100.00
50790;BME280;37287;47.554;7.844;2023-12-04T12:25:30;97361.75;;;-3.39;100.00
50790;BME280;37287;47.554;7.844;2023-12-04T12:27:57;97356.09;;;-3.46;100.00
50790;BME280;37287;47.554;7.844;2023-12-04T12:30:28;97342.47;;;-3.53;100.00
50790;BME280;37287;47.554;7.844;2023-12-04T12:32:55;97362.66;;;-3.57;100.00
50790;BME280;37287;47.554;7.844;2023-12-04T12:35:22;97343.94;;;-3.61;100.00
50790;BME280;37287;47.554;7.844;2023-12-04T12:37:50;97347.66;;;-3.62;100.00
50790;BME280;37287;47.554;7.844;2023-12-04T12:40:20;97335.81;;;-3.65;100.00
50790;BME280;37287;47.554;7.844;2023-12-04T12:42:47;97320.25;;;-3.66;100.00
50790;BME280;37287;47.554;7.844;2023-12-04T12:45:15;97328.47;;;-3.68;100.00
50790;BME280;37287;47.554;7.844;2023-12-04T12:47:43;97330.84;;;-3.66;100.00
50790;BME280;37287;47.554;7.844;2023-12-04T12:50:10;97323.38;;;-3.64;100.00
50790;BME280;37287;47.554;7.844;2023-12-04T12:52:38;97293.97;;;-3.63;100.00
50790;BME280;37287;47.554;7.844;2023-12-04T12:55:05;97330.91;;;-3.57;100.00
50790;BME280;37287;47.554;7.844;2023-12-04T12:57:32;97319.13;;;-3.51;100.00
50790;BME280;37287;47.554;7.844;2023-12-04T12:59:58;97308.44;;;-3.46;100.00